createdAt,value
2023-01-13T00:01:06.373Z,10.29
2023-01-13T00:03:35.863Z,10.26
2023-01-13T00:06:04.681Z,10.25
2023-01-13T00:08:32.754Z,10.18
2023-01-13T00:11:00.544Z,10.25
2023-01-13T00:13:28.436Z,10.29
2023-01-13T00:15:57.228Z,10.29
2023-01-13T00:18:25.281Z,10.21
2023-01-13T00:20:59.960Z,10.21
2023-01-13T00:23:29.098Z,10.23
2023-01-13T00:25:57.158Z,10.34
2023-01-13T00:28:24.994Z,10.35
2023-01-13T00:30:52.530Z,10.38
2023-01-13T00:33:20.315Z,10.31
2023-01-13T00:35:55.623Z,10.20
2023-01-13T00:38:24.797Z,10.31
2023-01-13T00:40:56.385Z,10.17
2023-01-13T00:43:25.409Z,10.27
2023-01-13T00:45:53.279Z,10.24
2023-01-13T00:48:22.747Z,10.33
2023-01-13T00:50:55.674Z,10.44
2023-01-13T00:53:25.316Z,10.37
2023-01-13T00:55:59.307Z,10.33
2023-01-13T00:58:29.315Z,10.33
2023-01-13T01:00:59.983Z,10.23
2023-01-13T01:03:28.167Z,10.22
2023-01-13T01:05:55.811Z,10.22
2023-01-13T01:08:26.280Z,10.13
2023-01-13T01:11:01.218Z,10.06
2023-01-13T01:13:29.425Z,10.15
2023-01-13T01:15:57.172Z,9.92
2023-01-13T01:18:25.853Z,10.12
2023-01-13T01:20:53.326Z,10.11
2023-01-13T01:23:20.926Z,10.05
2023-01-13T01:25:49.823Z,10.21
2023-01-13T01:28:17.539Z,10.23
2023-01-13T01:30:45.038Z,10.40
2023-01-13T01:33:12.787Z,10.31
2023-01-13T01:35:40.957Z,10.24
2023-01-13T01:38:08.543Z,10.47
2023-01-13T01:40:36.159Z,10.26
2023-01-13T01:43:14.901Z,10.28
2023-01-13T01:45:42.620Z,10.35
2023-01-13T01:48:11.738Z,10.41
2023-01-13T01:50:40.554Z,10.37
2023-01-13T01:53:14.708Z,10.39
2023-01-13T01:55:43.546Z,10.39
2023-01-13T01:58:18.106Z,10.45
2023-01-13T02:00:45.724Z,10.44
2023-01-13T02:03:16.242Z,10.42
2023-01-13T02:05:44.179Z,10.48
2023-01-13T02:08:14.260Z,10.29
2023-01-13T02:10:49.872Z,10.26
2023-01-13T02:13:22.605Z,10.30
2023-01-13T02:15:59.017Z,10.28
2023-01-13T02:18:42.480Z,10.47
2023-01-13T02:21:41.907Z,10.42
2023-01-13T02:24:44.105Z,10.52
2023-01-13T02:27:52.612Z,10.48
2023-01-13T02:30:39.350Z,10.46
2023-01-13T02:33:36.526Z,10.38
2023-01-13T02:36:12.688Z,10.52
2023-01-13T02:38:54.349Z,10.24
2023-01-13T02:41:28.171Z,10.38
2023-01-13T02:44:02.649Z,10.43
2023-01-13T02:46:39.218Z,10.46
2023-01-13T02:49:14.222Z,10.32
2023-01-13T02:51:45.827Z,10.43
2023-01-13T02:54:20.389Z,10.48
2023-01-13T02:56:50.681Z,10.57
2023-01-13T02:59:22.165Z,10.55
2023-01-13T03:01:55.344Z,10.59
2023-01-13T03:04:46.249Z,10.44
2023-01-13T03:07:37.243Z,10.59
2023-01-13T03:10:17.762Z,10.63
2023-01-13T03:12:56.407Z,10.44
2023-01-13T03:15:33.627Z,10.58
2023-01-13T03:18:13.917Z,10.58
2023-01-13T03:20:49.873Z,10.64
2023-01-13T03:23:28.720Z,10.58
2023-01-13T03:26:07.676Z,10.57
2023-01-13T03:28:45.155Z,10.36
2023-01-13T03:31:19.972Z,10.18
2023-01-13T03:33:57.980Z,10.18
2023-01-13T03:36:29.134Z,10.23
2023-01-13T03:39:00.983Z,10.18
2023-01-13T03:41:35.379Z,10.16
2023-01-13T03:44:11.450Z,10.22
2023-01-13T03:46:50.398Z,10.22
2023-01-13T03:49:24.841Z,10.26
2023-01-13T03:51:58.908Z,10.19
2023-01-13T03:54:30.951Z,10.01
2023-01-13T03:57:03.887Z,9.87
2023-01-13T03:59:36.731Z,10.00
2023-01-13T04:02:10.793Z,10.01
2023-01-13T04:04:48.516Z,9.87
2023-01-13T04:07:28.234Z,10.02
2023-01-13T04:10:00.340Z,10.02
2023-01-13T04:12:32.062Z,9.79
2023-01-13T04:14:59.731Z,9.91
2023-01-13T04:17:27.306Z,9.98
2023-01-13T04:19:56.157Z,10.06
2023-01-13T04:22:23.699Z,10.17
2023-01-13T04:24:51.262Z,10.23
2023-01-13T04:27:19.020Z,10.27
2023-01-13T04:29:46.551Z,10.15
2023-01-13T04:32:14.139Z,10.00
2023-01-13T04:34:41.857Z,9.89
2023-01-13T04:37:10.788Z,9.94
2023-01-13T04:39:38.630Z,9.96
2023-01-13T04:42:06.162Z,9.71
2023-01-13T04:44:33.687Z,9.60
2023-01-13T04:47:02.183Z,9.50
2023-01-13T04:49:30.081Z,9.29
2023-01-13T04:51:57.600Z,9.34
2023-01-13T04:54:26.480Z,9.31
2023-01-13T04:56:54.242Z,9.27
2023-01-13T04:59:21.738Z,9.23
2023-01-13T05:01:49.480Z,9.29
2023-01-13T05:04:17.132Z,9.31
2023-01-13T05:06:44.675Z,9.31
2023-01-13T05:09:12.423Z,9.46
2023-01-13T05:11:41.341Z,9.45
2023-01-13T05:14:09.439Z,9.37
2023-01-13T05:16:37.356Z,9.31
2023-01-13T05:19:04.940Z,9.30
2023-01-13T05:21:32.471Z,9.21
2023-01-13T05:24:01.243Z,9.30
2023-01-13T05:26:28.747Z,9.32
2023-01-13T05:28:57.605Z,9.21
2023-01-13T05:31:25.157Z,9.43
2023-01-13T05:33:52.697Z,9.41
2023-01-13T05:36:20.434Z,9.48
2023-01-13T05:38:47.969Z,9.29
2023-01-13T05:41:15.473Z,9.40
2023-01-13T05:43:43.037Z,9.34
2023-01-13T05:46:12.326Z,9.07
2023-01-13T05:48:42.250Z,9.20
2023-01-13T05:51:11.936Z,9.03
2023-01-13T05:53:39.660Z,9.17
2023-01-13T05:56:09.088Z,9.12
2023-01-13T05:58:36.940Z,8.94
2023-01-13T06:01:07.645Z,8.89
2023-01-13T06:03:38.002Z,8.91
2023-01-13T06:06:05.789Z,8.93
2023-01-13T06:08:33.411Z,9.02
2023-01-13T06:11:01.419Z,8.90
2023-01-13T06:13:28.937Z,8.91
2023-01-13T06:15:58.011Z,8.85
2023-01-13T06:18:26.996Z,8.88
2023-01-13T06:20:56.192Z,8.76
2023-01-13T06:23:23.927Z,8.75
2023-01-13T06:26:00.486Z,8.69
2023-01-13T06:28:28.031Z,8.62
2023-01-13T06:31:00.187Z,8.68
2023-01-13T06:33:33.348Z,8.67
2023-01-13T06:36:10.024Z,8.62
2023-01-13T06:38:44.176Z,8.66
2023-01-13T06:41:12.124Z,8.61
2023-01-13T06:43:40.224Z,8.71
2023-01-13T06:46:08.103Z,8.80
2023-01-13T06:48:35.925Z,8.52
2023-01-13T06:51:05.251Z,8.66
2023-01-13T06:53:32.821Z,8.67
2023-01-13T06:56:00.577Z,8.85
2023-01-13T06:58:28.063Z,8.95
2023-01-13T07:01:00.316Z,8.81
2023-01-13T07:03:28.151Z,8.76
2023-01-13T07:05:57.273Z,8.63
2023-01-13T07:08:26.191Z,8.71
2023-01-13T07:10:53.782Z,8.76
2023-01-13T07:13:21.476Z,8.64
2023-01-13T07:15:54.592Z,8.66
2023-01-13T07:18:22.275Z,8.64
2023-01-13T07:20:53.868Z,8.58
2023-01-13T07:23:21.476Z,8.67
2023-01-13T07:25:50.985Z,8.61
2023-01-13T07:28:18.490Z,8.57
2023-01-13T07:30:46.053Z,8.70
2023-01-13T07:33:13.547Z,8.61
2023-01-13T07:35:41.893Z,8.74
2023-01-13T07:38:09.665Z,8.76
2023-01-13T07:40:39.887Z,8.71
2023-01-13T07:43:12.309Z,8.92
2023-01-13T07:45:40.175Z,8.91
2023-01-13T07:48:07.894Z,8.76
2023-01-13T07:50:35.730Z,8.96
2023-01-13T07:53:04.083Z,8.95
2023-01-13T07:55:31.630Z,8.84
2023-01-13T07:57:59.154Z,8.68
2023-01-13T08:00:29.129Z,8.84
2023-01-13T08:02:59.931Z,8.82
2023-01-13T08:05:27.645Z,8.96
2023-01-13T08:07:55.289Z,8.88
2023-01-13T08:10:23.142Z,8.92
2023-01-13T08:12:54.831Z,8.98
2023-01-13T08:15:24.750Z,8.81
2023-01-13T08:17:54.885Z,8.85
2023-01-13T08:20:22.531Z,8.98
2023-01-13T08:22:50.073Z,9.06
2023-01-13T08:25:18.457Z,8.93
2023-01-13T08:27:48.209Z,8.71
2023-01-13T08:30:16.688Z,8.89
2023-01-13T08:32:45.588Z,9.08
2023-01-13T08:35:15.439Z,8.92
2023-01-13T08:37:44.032Z,8.88
2023-01-13T08:40:13.884Z,9.09
2023-01-13T08:42:41.599Z,9.24
2023-01-13T08:45:10.620Z,9.40
2023-01-13T08:47:38.376Z,9.14
2023-01-13T08:50:07.805Z,9.08
2023-01-13T08:52:40.065Z,9.13
2023-01-13T08:55:08.836Z,9.16
2023-01-13T08:57:36.440Z,9.40
2023-01-13T09:00:06.234Z,8.75
2023-01-13T09:02:34.042Z,9.06
2023-01-13T09:05:01.964Z,8.89
2023-01-13T09:07:29.670Z,8.96
2023-01-13T09:09:58.554Z,9.07
2023-01-13T09:12:26.081Z,9.15
2023-01-13T09:14:53.627Z,9.23
2023-01-13T09:17:21.761Z,9.42
2023-01-13T09:19:49.463Z,9.32
2023-01-13T09:22:19.512Z,9.61
2023-01-13T09:24:47.086Z,9.43
2023-01-13T09:27:15.943Z,9.63
2023-01-13T09:29:43.486Z,9.73
2023-01-13T09:32:11.621Z,9.97
2023-01-13T09:34:39.523Z,10.14
2023-01-13T09:37:08.066Z,10.26
2023-01-13T09:39:36.378Z,10.46
2023-01-13T09:42:15.711Z,11.32
2023-01-13T09:44:52.783Z,11.09
2023-01-13T09:47:28.892Z,10.87
2023-01-13T09:50:08.184Z,10.25
2023-01-13T09:52:37.212Z,9.86
2023-01-13T09:55:10.700Z,10.20
2023-01-13T09:57:38.864Z,9.92
2023-01-13T10:00:18.887Z,9.96
2023-01-13T10:03:18.220Z,10.07
2023-01-13T10:05:54.526Z,10.43
2023-01-13T10:08:26.808Z,10.37
2023-01-13T10:10:57.769Z,10.37
2023-01-13T10:13:28.161Z,10.61
2023-01-13T10:16:13.740Z,10.54
2023-01-13T10:18:57.948Z,10.54
2023-01-13T10:21:57.359Z,10.54
2023-01-13T10:24:43.159Z,10.74
2023-01-13T10:27:21.254Z,10.60
2023-01-13T10:29:51.349Z,10.86
2023-01-13T10:32:20.270Z,10.73
2023-01-13T10:34:50.248Z,11.01
2023-01-13T10:37:23.169Z,10.67
2023-01-13T10:39:56.037Z,10.56
2023-01-13T10:42:24.288Z,10.69
2023-01-13T10:44:53.718Z,10.57
2023-01-13T10:47:28.771Z,10.31
2023-01-13T10:50:03.727Z,10.47
2023-01-13T10:52:34.701Z,10.50
2023-01-13T10:55:03.972Z,12.19
2023-01-13T10:57:36.900Z,12.87
2023-01-13T11:03:13.096Z,12.91
2023-01-13T11:05:49.157Z,12.42
2023-01-13T11:08:19.377Z,13.48
2023-01-13T11:10:50.915Z,14.11
2023-01-13T11:13:25.527Z,12.92
2023-01-13T11:16:00.832Z,12.74
2023-01-13T11:18:40.982Z,12.52
2023-01-13T11:21:19.877Z,12.20
2023-01-13T11:23:52.972Z,12.03
2023-01-13T11:26:27.263Z,11.76
2023-01-13T11:29:08.148Z,11.90
2023-01-13T11:31:43.973Z,12.38
2023-01-13T11:34:28.011Z,14.32
2023-01-13T11:37:00.368Z,13.76
2023-01-13T11:39:44.162Z,13.30
2023-01-13T11:42:21.527Z,13.11
2023-01-13T11:45:05.210Z,12.71
2023-01-13T11:47:36.150Z,12.80
2023-01-13T11:50:17.222Z,12.59
2023-01-13T11:53:09.547Z,12.67
2023-01-13T11:55:54.183Z,13.99
2023-01-13T12:01:45.592Z,12.94
2023-01-13T12:04:28.359Z,12.78
2023-01-13T12:07:14.512Z,13.55
2023-01-13T12:10:00.613Z,13.31
2023-01-13T12:12:43.022Z,13.76
2023-01-13T12:15:35.827Z,13.32
2023-01-13T12:18:26.696Z,13.01
2023-01-13T12:21:13.412Z,14.66
2023-01-13T12:23:54.614Z,15.44
2023-01-13T12:26:23.485Z,15.32
2023-01-13T12:28:57.707Z,15.62
2023-01-13T12:31:28.520Z,14.99
2023-01-13T12:34:15.996Z,15.22
2023-01-13T12:37:02.514Z,13.90
2023-01-13T12:39:50.248Z,13.67
2023-01-13T12:42:27.031Z,13.37
2023-01-13T12:45:22.642Z,14.39
2023-01-13T12:47:50.831Z,14.26
2023-01-13T12:50:43.188Z,15.13
2023-01-13T12:53:34.778Z,15.17
2023-01-13T12:56:39.362Z,15.71
2023-01-13T12:59:34.941Z,14.68
2023-01-13T13:02:31.873Z,13.93
2023-01-13T13:05:16.688Z,13.76
2023-01-13T13:07:48.380Z,13.61
2023-01-13T13:27:17.095Z,12.92
2023-01-13T13:35:42.612Z,12.94
2023-01-13T13:41:22.398Z,12.90
2023-01-13T13:43:51.588Z,13.06
2023-01-13T13:46:28.481Z,13.01
2023-01-13T13:48:56.406Z,12.91
2023-01-13T13:51:31.973Z,12.77
2023-01-13T13:53:59.766Z,12.63
2023-01-13T13:56:32.151Z,12.55
2023-01-13T13:59:01.288Z,12.42
2023-01-13T14:01:34.952Z,12.22
2023-01-13T14:04:05.826Z,12.35
2023-01-13T14:06:34.122Z,12.27
2023-01-13T14:09:03.274Z,12.14
2023-01-13T14:11:33.417Z,12.22
2023-01-13T14:14:04.237Z,12.26
2023-01-13T14:16:33.873Z,12.09
2023-01-13T14:19:02.228Z,12.01
2023-01-13T14:21:30.797Z,12.02
2023-01-13T14:24:02.244Z,12.13
2023-01-13T14:26:31.773Z,12.28
2023-01-13T14:29:03.116Z,12.39
2023-01-13T14:31:32.839Z,12.37
2023-01-13T14:34:30.544Z,12.24
2023-01-13T14:36:51.351Z,12.28
2023-01-13T14:39:33.076Z,12.14
2023-01-13T14:42:00.615Z,12.15
2023-01-13T14:44:33.221Z,12.15
2023-01-13T14:47:04.467Z,12.13
2023-01-13T14:49:37.365Z,12.00
2023-01-13T14:52:15.650Z,12.17
2023-01-13T14:54:45.963Z,12.16
2023-01-13T14:57:24.411Z,12.27
2023-01-13T15:00:04.779Z,12.15
2023-01-13T15:02:38.691Z,11.83
2023-01-13T15:05:45.942Z,12.08
2023-01-13T15:08:28.869Z,12.02
2023-01-13T15:11:00.160Z,12.06
2023-01-13T15:13:36.047Z,11.78
2023-01-13T15:16:13.271Z,11.81
2023-01-13T15:18:40.965Z,11.94
2023-01-13T15:21:09.641Z,11.63
2023-01-13T15:23:38.046Z,11.65
2023-01-13T15:26:20.441Z,11.66
2023-01-13T15:28:49.634Z,11.68
2023-01-13T15:31:19.883Z,11.81
2023-01-13T15:33:47.930Z,11.63
2023-01-13T15:36:27.328Z,11.66
2023-01-13T15:38:55.560Z,11.53
2023-01-13T15:41:23.803Z,11.80
2023-01-13T15:43:51.380Z,11.82
2023-01-13T15:46:20.699Z,11.72
2023-01-13T15:48:53.106Z,11.72
2023-01-13T15:51:22.504Z,11.64
2023-01-13T15:53:50.322Z,11.28
2023-01-13T15:56:24.357Z,11.18
2023-01-13T15:58:52.565Z,11.28
2023-01-13T16:01:22.773Z,11.32
2023-01-13T16:03:50.535Z,11.18
2023-01-13T16:06:20.883Z,11.41
2023-01-13T16:08:48.391Z,11.27
2023-01-13T16:11:16.059Z,11.30
2023-01-13T16:13:43.633Z,11.13
2023-01-13T16:16:19.131Z,11.23
2023-01-13T16:18:48.519Z,11.21
2023-01-13T16:21:16.127Z,11.31
2023-01-13T16:23:43.758Z,11.30
2023-01-13T16:26:20.711Z,11.17
2023-01-13T16:28:49.049Z,11.35
2023-01-13T16:31:21.610Z,11.35
2023-01-13T16:33:50.837Z,11.37
2023-01-13T16:36:20.368Z,11.34
2023-01-13T16:38:49.189Z,11.31
2023-01-13T16:41:16.839Z,11.16
2023-01-13T16:43:44.686Z,11.27
2023-01-13T16:46:21.843Z,11.43
2023-01-13T16:48:52.689Z,11.32
2023-01-13T16:51:21.250Z,11.29
2023-01-13T16:53:49.339Z,11.29
2023-01-13T16:56:24.402Z,11.31
2023-01-13T16:58:53.674Z,11.18
2023-01-13T17:01:25.143Z,11.22
2023-01-13T17:03:54.956Z,11.24
2023-01-13T17:06:26.744Z,11.21
2023-01-13T17:08:54.502Z,11.05
2023-01-13T17:11:22.144Z,11.09
2023-01-13T17:13:49.677Z,11.16
2023-01-13T17:16:20.764Z,11.33
2023-01-13T17:18:48.490Z,11.29
2023-01-13T17:21:18.018Z,11.19
2023-01-13T17:23:45.676Z,11.18
2023-01-13T17:26:31.887Z,11.15
2023-01-13T17:29:01.520Z,11.14
2023-01-13T17:31:29.378Z,11.21
2023-01-13T17:33:57.286Z,11.16
2023-01-13T17:36:26.319Z,11.10
2023-01-13T17:38:55.063Z,11.07
2023-01-13T17:41:23.207Z,10.97
2023-01-13T17:43:51.697Z,10.98
2023-01-13T17:46:20.744Z,10.78
2023-01-13T17:48:49.947Z,10.71
2023-01-13T17:51:18.741Z,10.84
2023-01-13T17:53:47.679Z,10.94
2023-01-13T17:56:17.294Z,10.92
2023-01-13T17:58:44.999Z,10.85
2023-01-13T18:01:15.300Z,10.73
2023-01-13T18:03:43.245Z,10.87
2023-01-13T18:06:15.804Z,10.72
2023-01-13T18:08:43.424Z,10.69
2023-01-13T18:11:12.565Z,10.77
2023-01-13T18:13:40.334Z,10.64
2023-01-13T18:16:10.718Z,10.72
2023-01-13T18:18:39.617Z,10.71
2023-01-13T18:21:13.429Z,10.61
2023-01-13T18:23:41.069Z,10.48
2023-01-13T18:26:16.626Z,10.62
2023-01-13T18:28:44.337Z,10.61
2023-01-13T18:31:11.976Z,10.77
2023-01-13T18:33:39.560Z,10.77
2023-01-13T18:36:08.312Z,10.69
2023-01-13T18:38:36.184Z,10.80
2023-01-13T18:41:05.122Z,10.85
2023-01-13T18:43:34.052Z,10.80
2023-01-13T18:46:01.623Z,10.80
2023-01-13T18:48:30.105Z,10.82
2023-01-13T18:50:57.977Z,10.88
2023-01-13T18:53:25.516Z,10.94
2023-01-13T18:55:53.143Z,10.93
2023-01-13T18:58:20.808Z,10.88
2023-01-13T19:00:49.834Z,10.86
2023-01-13T19:03:17.479Z,10.92
2023-01-13T19:05:45.100Z,10.99
2023-01-13T19:08:12.779Z,10.97
2023-01-13T19:10:40.318Z,11.09
2023-01-13T19:13:07.936Z,11.23
2023-01-13T19:15:36.239Z,11.16
2023-01-13T19:18:05.379Z,11.16
2023-01-13T19:20:32.991Z,11.28
2023-01-13T19:23:00.577Z,11.24
2023-01-13T19:25:28.212Z,11.16
2023-01-13T19:27:55.843Z,11.09
2023-01-13T19:30:23.407Z,11.11
2023-01-13T19:32:51.021Z,11.18
2023-01-13T19:35:20.049Z,11.05
2023-01-13T19:37:47.584Z,11.01
2023-01-13T19:40:15.746Z,11.28
2023-01-13T19:42:44.173Z,10.79
2023-01-13T19:45:13.457Z,10.53
2023-01-13T19:47:41.083Z,10.50
2023-01-13T19:50:10.198Z,10.46
2023-01-13T19:52:39.157Z,10.43
2023-01-13T19:55:07.400Z,10.09
2023-01-13T19:57:35.406Z,10.16
2023-01-13T20:00:03.961Z,10.29
2023-01-13T20:02:31.680Z,10.34
2023-01-13T20:05:01.529Z,10.26
2023-01-13T20:07:31.497Z,10.24
2023-01-13T20:10:00.635Z,10.26
2023-01-13T20:12:28.604Z,10.34
2023-01-13T20:14:56.405Z,10.24
2023-01-13T20:17:24.419Z,10.35
2023-01-13T20:19:54.574Z,10.32
2023-01-13T20:22:22.116Z,10.48
2023-01-13T20:24:49.623Z,10.52
2023-01-13T20:27:18.560Z,10.55
2023-01-13T20:29:46.206Z,10.52
2023-01-13T20:32:13.792Z,10.58
2023-01-13T20:34:41.373Z,10.58
2023-01-13T20:37:08.937Z,10.59
2023-01-13T20:39:36.522Z,10.71
2023-01-13T20:42:04.149Z,10.54
2023-01-13T20:44:33.112Z,10.69
2023-01-13T20:47:01.311Z,10.60
2023-01-13T20:49:29.286Z,10.66
2023-01-13T20:51:57.541Z,10.58
2023-01-13T20:54:26.112Z,10.70
2023-01-13T20:56:53.738Z,10.75
2023-01-13T20:59:21.319Z,10.55
2023-01-13T21:01:50.181Z,10.51
2023-01-13T21:04:17.852Z,10.55
2023-01-13T21:06:45.482Z,10.57
2023-01-13T21:09:13.067Z,10.51
2023-01-13T21:11:40.583Z,10.36
2023-01-13T21:14:13.910Z,10.55
2023-01-13T21:16:41.562Z,10.47
2023-01-13T21:19:10.589Z,10.43
2023-01-13T21:21:38.269Z,10.34
2023-01-13T21:24:06.089Z,10.24
2023-01-13T21:26:33.593Z,10.03
2023-01-13T21:29:01.137Z,10.03
2023-01-13T21:31:28.916Z,9.78
2023-01-13T21:33:58.371Z,9.88
2023-01-13T21:36:28.124Z,10.10
2023-01-13T21:38:59.155Z,10.20
2023-01-13T21:41:26.811Z,10.13
2023-01-13T21:43:54.309Z,10.34
2023-01-13T21:46:23.614Z,10.01
2023-01-13T21:48:51.261Z,10.16
2023-01-13T21:51:18.865Z,10.14
2023-01-13T21:53:47.824Z,10.30
2023-01-13T21:56:15.475Z,10.27
2023-01-13T21:58:42.998Z,10.28
2023-01-13T22:01:11.882Z,10.35
2023-01-13T22:03:40.243Z,10.46
2023-01-13T22:06:07.942Z,10.64
2023-01-13T22:08:35.607Z,10.53
2023-01-13T22:11:04.846Z,10.67
2023-01-13T22:13:32.478Z,10.71
2023-01-13T22:16:02.447Z,10.81
2023-01-13T22:18:30.074Z,10.91
2023-01-13T22:21:00.145Z,10.75
2023-01-13T22:23:28.530Z,10.73
2023-01-13T22:26:00.841Z,10.68
2023-01-13T22:28:30.459Z,10.48
2023-01-13T22:30:58.104Z,10.44
2023-01-13T22:33:25.713Z,10.32
2023-01-13T22:35:56.496Z,10.50
2023-01-13T22:38:24.158Z,10.40
2023-01-13T22:40:59.278Z,10.20
2023-01-13T22:43:27.509Z,10.39
2023-01-13T22:46:00.956Z,10.36
2023-01-13T22:48:29.015Z,10.16
2023-01-13T22:50:56.878Z,10.21
2023-01-13T22:53:24.563Z,10.26
2023-01-13T22:55:56.129Z,10.20
2023-01-13T22:58:24.582Z,10.17
2023-01-13T23:00:52.837Z,10.01
2023-01-13T23:03:22.835Z,10.21
2023-01-13T23:05:55.804Z,10.17
2023-01-13T23:08:23.437Z,10.29
2023-01-13T23:10:51.326Z,10.21
2023-01-13T23:13:18.855Z,10.26
2023-01-13T23:15:46.400Z,10.13
2023-01-13T23:18:14.003Z,10.17
2023-01-13T23:20:42.939Z,10.27
2023-01-13T23:23:10.441Z,10.28
2023-01-13T23:25:38.062Z,10.37
2023-01-13T23:28:05.643Z,10.25
2023-01-13T23:30:33.279Z,10.21
2023-01-13T23:33:00.906Z,10.32
2023-01-13T23:35:28.484Z,10.29
2023-01-13T23:37:57.394Z,10.18
2023-01-13T23:40:24.923Z,10.20
2023-01-13T23:42:52.446Z,10.18
2023-01-13T23:45:19.970Z,10.19
2023-01-13T23:47:47.565Z,10.12
2023-01-13T23:50:15.697Z,10.09
2023-01-13T23:52:43.265Z,10.10
2023-01-13T23:55:12.221Z,10.09
2023-01-13T23:57:39.931Z,10.09
